sensor_id;sensor_type;location;lat;lon;timestamp;pressure;altitude;pressure_sealevel;temperature;humidity
53262;BME280;39658;51.090;-1.786;2023-02-02T00:01:47;102011.28;;;22.08;44.72
53262;BME280;39658;51.090;-1.786;2023-02-02T00:04:16;102024.38;;;22.04;44.81
53262;BME280;39658;51.090;-1.786;2023-02-02T00:06:43;102019.50;;;22.00;44.78
53262;BME280;39658;51.090;-1.786;2023-02-02T00:09:12;102027.19;;;21.96;44.88
53262;BME280;39658;51.090;-1.786;2023-02-02T00:11:39;102028.63;;;21.92;44.96
53262;BME280;39658;51.090;-1.786;2023-02-02T00:14:06;102029.88;;;21.89;45.03
53262;BME280;39658;51.090;-1.786;2023-02-02T00:16:41;102021.28;;;21.86;44.99
53262;BME280;39658;51.090;-1.786;2023-02-02T00:19:11;102028.97;;;21.82;45.16
53262;BME280;39658;51.090;-1.786;2023-02-02T00:21:39;102024.16;;;21.78;45.11
53262;BME280;39658;51.090;-1.786;2023-02-02T00:24:07;102019.13;;;21.75;45.07
53262;BME280;39658;51.090;-1.786;2023-02-02T00:26:34;102024.09;;;21.71;45.53
53262;BME280;39658;51.090;-1.786;2023-02-02T00:29:01;102023.47;;;21.69;45.21
53262;BME280;39658;51.090;-1.786;2023-02-02T00:31:28;102019.47;;;21.65;45.29
53262;BME280;39658;51.090;-1.786;2023-02-02T00:33:55;102017.16;;;21.62;45.46
53262;BME280;39658;51.090;-1.786;2023-02-02T00:36:24;102016.69;;;21.58;45.32
53262;BME280;39658;51.090;-1.786;2023-02-02T00:38:50;102015.19;;;21.56;45.52
53262;BME280;39658;51.090;-1.786;2023-02-02T00:41:18;102012.88;;;21.53;45.52
53262;BME280;39658;51.090;-1.786;2023-02-02T00:43:45;102010.56;;;21.50;45.40
53262;BME280;39658;51.090;-1.786;2023-02-02T00:46:32;102014.50;;;21.47;45.49
53262;BME280;39658;51.090;-1.786;2023-02-02T00:48:58;102007.63;;;21.45;45.62
53262;BME280;39658;51.090;-1.786;2023-02-02T00:51:26;102005.28;;;21.42;45.55
53262;BME280;39658;51.090;-1.786;2023-02-02T00:53:53;101997.38;;;21.40;45.65
53262;BME280;39658;51.090;-1.786;2023-02-02T00:56:20;101988.78;;;21.37;45.69
53262;BME280;39658;51.090;-1.786;2023-02-02T00:58:47;101988.16;;;21.35;45.74
53262;BME280;39658;51.090;-1.786;2023-02-02T01:01:15;101992.09;;;21.32;45.59
53262;BME280;39658;51.090;-1.786;2023-02-02T01:03:42;101999.75;;;21.29;45.71
53262;BME280;39658;51.090;-1.786;2023-02-02T01:06:09;102005.38;;;21.27;45.65
53262;BME280;39658;51.090;-1.786;2023-02-02T01:08:38;101998.47;;;21.24;45.58
53262;BME280;39658;51.090;-1.786;2023-02-02T01:11:04;101996.97;;;21.22;45.88
53262;BME280;39658;51.090;-1.786;2023-02-02T01:13:32;102002.53;;;21.20;45.76
53262;BME280;39658;51.090;-1.786;2023-02-02T01:15:59;102002.94;;;21.17;45.93
53262;BME280;39658;51.090;-1.786;2023-02-02T01:18:27;102001.44;;;21.15;45.83
53262;BME280;39658;51.090;-1.786;2023-02-02T01:20:58;102001.84;;;21.12;45.84
53262;BME280;39658;51.090;-1.786;2023-02-02T01:23:25;101997.47;;;21.11;45.88
53262;BME280;39658;51.090;-1.786;2023-02-02T01:25:53;102004.94;;;21.09;45.87
53262;BME280;39658;51.090;-1.786;2023-02-02T01:28:21;102010.72;;;21.06;46.03
53262;BME280;39658;51.090;-1.786;2023-02-02T01:30:47;102018.41;;;21.02;45.95
53262;BME280;39658;51.090;-1.786;2023-02-02T01:33:14;102017.75;;;21.00;45.98
53262;BME280;39658;51.090;-1.786;2023-02-02T01:35:44;102008.16;;;20.98;46.03
53262;BME280;39658;51.090;-1.786;2023-02-02T01:38:11;102011.06;;;20.96;46.14
53262;BME280;39658;51.090;-1.786;2023-02-02T01:40:44;102008.53;;;20.94;45.91
53262;BME280;39658;51.090;-1.786;2023-02-02T01:43:20;102005.19;;;20.92;46.03
53262;BME280;39658;51.090;-1.786;2023-02-02T01:45:48;102006.41;;;20.90;46.01
53262;BME280;39658;51.090;-1.786;2023-02-02T01:48:15;102000.34;;;20.88;46.13
53262;BME280;39658;51.090;-1.786;2023-02-02T01:50:44;102003.25;;;20.86;46.09
53262;BME280;39658;51.090;-1.786;2023-02-02T01:53:13;102007.19;;;20.84;45.99
53262;BME280;39658;51.090;-1.786;2023-02-02T01:55:41;101998.41;;;20.82;46.19
53262;BME280;39658;51.090;-1.786;2023-02-02T01:58:11;102004.81;;;20.81;46.08
53262;BME280;39658;51.090;-1.786;2023-02-02T02:00:42;102003.34;;;20.78;45.65
53262;BME280;39658;51.090;-1.786;2023-02-02T02:03:13;102001.00;;;20.75;46.26
53262;BME280;39658;51.090;-1.786;2023-02-02T02:05:43;102001.22;;;20.74;46.29
53262;BME280;39658;51.090;-1.786;2023-02-02T02:08:14;101999.72;;;20.71;46.22
53262;BME280;39658;51.090;-1.786;2023-02-02T02:10:42;101997.22;;;20.70;46.27
53262;BME280;39658;51.090;-1.786;2023-02-02T02:13:09;101998.44;;;20.67;46.32
53262;BME280;39658;51.090;-1.786;2023-02-02T02:15:43;101994.22;;;20.64;46.29
53262;BME280;39658;51.090;-1.786;2023-02-02T02:18:39;101992.75;;;20.62;46.41
53262;BME280;39658;51.090;-1.786;2023-02-02T02:21:39;101987.53;;;20.60;46.17
53262;BME280;39658;51.090;-1.786;2023-02-02T02:25:00;101990.63;;;20.57;46.30
53262;BME280;39658;51.090;-1.786;2023-02-02T02:28:06;101985.59;;;20.54;46.24
53262;BME280;39658;51.090;-1.786;2023-02-02T02:33:47;101980.75;;;20.50;46.31
53262;BME280;39658;51.090;-1.786;2023-02-02T02:36:16;101982.81;;;20.48;46.37
53262;BME280;39658;51.090;-1.786;2023-02-02T02:38:49;101992.13;;;20.45;46.39
53262;BME280;39658;51.090;-1.786;2023-02-02T02:41:20;101994.00;;;20.45;46.38
53262;BME280;39658;51.090;-1.786;2023-02-02T02:43:51;102001.47;;;20.43;46.50
53262;BME280;39658;51.090;-1.786;2023-02-02T02:46:21;101995.38;;;20.41;46.45
53262;BME280;39658;51.090;-1.786;2023-02-02T02:48:50;101999.25;;;20.38;46.24
53262;BME280;39658;51.090;-1.786;2023-02-02T02:51:43;101993.22;;;20.36;46.41
53262;BME280;39658;51.090;-1.786;2023-02-02T02:54:11;101996.09;;;20.34;46.45
53262;BME280;39658;51.090;-1.786;2023-02-02T02:56:47;101991.06;;;20.31;46.43
53262;BME280;39658;51.090;-1.786;2023-02-02T02:59:27;101990.41;;;20.29;46.48
53262;BME280;39658;51.090;-1.786;2023-02-02T03:02:06;101994.34;;;20.27;46.32
53262;BME280;39658;51.090;-1.786;2023-02-02T03:04:42;101984.75;;;20.24;46.52
53262;BME280;39658;51.090;-1.786;2023-02-02T03:07:17;101991.38;;;20.22;46.53
53262;BME280;39658;51.090;-1.786;2023-02-02T03:09:47;101996.94;;;20.20;46.52
53262;BME280;39658;51.090;-1.786;2023-02-02T03:12:15;101995.28;;;20.19;46.53
53262;BME280;39658;51.090;-1.786;2023-02-02T03:14:42;101993.78;;;20.17;46.51
53262;BME280;39658;51.090;-1.786;2023-02-02T03:17:09;102000.22;;;20.16;46.58
53262;BME280;39658;51.090;-1.786;2023-02-02T03:19:37;101987.91;;;20.13;46.67
53262;BME280;39658;51.090;-1.786;2023-02-02T03:22:04;102003.47;;;20.11;46.54
53262;BME280;39658;51.090;-1.786;2023-02-02T03:24:31;101990.34;;;20.08;46.57
53262;BME280;39658;51.090;-1.786;2023-02-02T03:26:58;102005.91;;;20.06;46.49
53262;BME280;39658;51.090;-1.786;2023-02-02T03:29:25;102009.63;;;20.05;46.66
53262;BME280;39658;51.090;-1.786;2023-02-02T03:31:52;102015.22;;;20.03;46.63
53262;BME280;39658;51.090;-1.786;2023-02-02T03:34:19;102007.31;;;20.02;46.61
53262;BME280;39658;51.090;-1.786;2023-02-02T03:36:47;102008.28;;;20.01;46.64
53262;BME280;39658;51.090;-1.786;2023-02-02T03:39:14;102003.09;;;19.99;46.83
53262;BME280;39658;51.090;-1.786;2023-02-02T03:41:41;102009.50;;;19.98;46.63
53262;BME280;39658;51.090;-1.786;2023-02-02T03:44:08;102005.31;;;19.96;46.91
53262;BME280;39658;51.090;-1.786;2023-02-02T03:46:34;101997.41;;;19.94;46.67
53262;BME280;39658;51.090;-1.786;2023-02-02T03:49:01;101999.25;;;19.94;46.74
53262;BME280;39658;51.090;-1.786;2023-02-02T03:51:28;102001.31;;;19.92;46.64
53262;BME280;39658;51.090;-1.786;2023-02-02T03:53:56;102003.16;;;19.91;46.85
53262;BME280;39658;51.090;-1.786;2023-02-02T03:56:23;102011.47;;;19.90;46.54
53262;BME280;39658;51.090;-1.786;2023-02-02T03:58:50;102005.41;;;19.88;46.86
53262;BME280;39658;51.090;-1.786;2023-02-02T04:01:17;102009.13;;;19.87;46.72
53262;BME280;39658;51.090;-1.786;2023-02-02T04:03:51;102007.44;;;19.86;46.46
53262;BME280;39658;51.090;-1.786;2023-02-02T04:06:17;102019.28;;;19.85;46.63
53262;BME280;39658;51.090;-1.786;2023-02-02T04:08:45;102023.00;;;19.84;46.76
53262;BME280;39658;51.090;-1.786;2023-02-02T04:11:13;102016.09;;;19.81;46.61
53262;BME280;39658;51.090;-1.786;2023-02-02T04:13:40;102016.09;;;19.81;46.52
53262;BME280;39658;51.090;-1.786;2023-02-02T04:16:08;102027.09;;;19.80;46.65
53262;BME280;39658;51.090;-1.786;2023-02-02T04:18:35;102028.13;;;19.79;46.54
53262;BME280;39658;51.090;-1.786;2023-02-02T04:21:04;102017.50;;;19.77;46.74
53262;BME280;39658;51.090;-1.786;2023-02-02T04:23:32;102014.97;;;19.76;46.78
53262;BME280;39658;51.090;-1.786;2023-02-02T04:25:59;102018.72;;;19.75;46.51
53262;BME280;39658;51.090;-1.786;2023-02-02T04:28:27;102016.19;;;19.73;46.77
53262;BME280;39658;51.090;-1.786;2023-02-02T04:30:55;102017.41;;;19.70;46.68
53262;BME280;39658;51.090;-1.786;2023-02-02T04:33:23;102019.06;;;19.71;46.61
53262;BME280;39658;51.090;-1.786;2023-02-02T04:35:50;102013.84;;;19.70;46.77
53262;BME280;39658;51.090;-1.786;2023-02-02T04:38:17;102016.75;;;19.68;46.65
53262;BME280;39658;51.090;-1.786;2023-02-02T04:40:46;102011.53;;;19.67;46.81
53262;BME280;39658;51.090;-1.786;2023-02-02T04:43:13;102010.03;;;19.64;46.84
53262;BME280;39658;51.090;-1.786;2023-02-02T04:45:41;102015.44;;;19.64;46.83
53262;BME280;39658;51.090;-1.786;2023-02-02T04:48:09;102006.50;;;19.64;46.63
53262;BME280;39658;51.090;-1.786;2023-02-02T04:50:36;102014.78;;;19.62;46.76
53262;BME280;39658;51.090;-1.786;2023-02-02T04:53:03;102007.00;;;19.59;46.88
53262;BME280;39658;51.090;-1.786;2023-02-02T04:55:35;102008.88;;;19.59;46.78
53262;BME280;39658;51.090;-1.786;2023-02-02T04:58:02;102009.06;;;19.57;46.82
53262;BME280;39658;51.090;-1.786;2023-02-02T05:00:29;102013.63;;;19.57;46.60
53262;BME280;39658;51.090;-1.786;2023-02-02T05:02:57;102016.50;;;19.55;46.63
53262;BME280;39658;51.090;-1.786;2023-02-02T05:05:24;102022.94;;;19.54;46.77
53262;BME280;39658;51.090;-1.786;2023-02-02T05:07:50;102015.00;;;19.53;47.01
53262;BME280;39658;51.090;-1.786;2023-02-02T05:10:17;102016.00;;;19.52;46.74
53262;BME280;39658;51.090;-1.786;2023-02-02T05:12:44;102014.31;;;19.51;46.81
53262;BME280;39658;51.090;-1.786;2023-02-02T05:15:11;102020.91;;;19.48;46.72
53262;BME280;39658;51.090;-1.786;2023-02-02T05:17:38;102029.19;;;19.47;46.59
53262;BME280;39658;51.090;-1.786;2023-02-02T05:20:07;102029.19;;;19.47;46.66
53262;BME280;39658;51.090;-1.786;2023-02-02T05:22:34;102030.41;;;19.44;46.91
53262;BME280;39658;51.090;-1.786;2023-02-02T05:25:01;102044.94;;;19.43;46.78
53262;BME280;39658;51.090;-1.786;2023-02-02T05:27:28;102036.16;;;19.41;46.60
53262;BME280;39658;51.090;-1.786;2023-02-02T05:29:54;102046.13;;;19.40;46.93
53262;BME280;39658;51.090;-1.786;2023-02-02T05:32:22;102044.63;;;19.38;46.99
53262;BME280;39658;51.090;-1.786;2023-02-02T05:34:48;102046.50;;;19.37;46.53
53262;BME280;39658;51.090;-1.786;2023-02-02T05:37:16;102047.50;;;19.36;46.78
53262;BME280;39658;51.090;-1.786;2023-02-02T05:39:43;102039.59;;;19.35;46.93
53262;BME280;39658;51.090;-1.786;2023-02-02T05:42:10;102036.22;;;19.33;46.78
53262;BME280;39658;51.090;-1.786;2023-02-02T05:44:37;102034.56;;;19.32;46.96
53262;BME280;39658;51.090;-1.786;2023-02-02T05:47:04;102037.44;;;19.30;46.89
53262;BME280;39658;51.090;-1.786;2023-02-02T05:49:31;102021.41;;;19.29;46.89
53262;BME280;39658;51.090;-1.786;2023-02-02T05:51:58;102030.53;;;19.28;46.45
53262;BME280;39658;51.090;-1.786;2023-02-02T05:54:26;102022.63;;;19.26;46.47
53262;BME280;39658;51.090;-1.786;2023-02-02T05:56:53;102021.97;;;19.24;46.65
53262;BME280;39658;51.090;-1.786;2023-02-02T05:59:21;102024.66;;;19.24;46.55
53262;BME280;39658;51.090;-1.786;2023-02-02T06:01:48;102030.25;;;19.23;46.73
53262;BME280;39658;51.090;-1.786;2023-02-02T06:04:15;102027.72;;;19.21;46.72
53262;BME280;39658;51.090;-1.786;2023-02-02T06:06:42;102027.88;;;19.20;46.71
53262;BME280;39658;51.090;-1.786;2023-02-02T06:09:10;102022.47;;;19.20;47.03
53262;BME280;39658;51.090;-1.786;2023-02-02T06:11:38;102023.31;;;19.20;46.70
53262;BME280;39658;51.090;-1.786;2023-02-02T06:14:05;102019.25;;;19.24;46.78
53262;BME280;39658;51.090;-1.786;2023-02-02T06:16:32;102022.09;;;19.31;46.42
53262;BME280;39658;51.090;-1.786;2023-02-02T06:18:59;102023.69;;;19.40;46.28
53262;BME280;39658;51.090;-1.786;2023-02-02T06:21:26;102031.91;;;19.47;46.37
53262;BME280;39658;51.090;-1.786;2023-02-02T06:23:56;102031.50;;;19.58;46.21
53262;BME280;39658;51.090;-1.786;2023-02-02T06:26:23;102028.22;;;19.70;45.75
53262;BME280;39658;51.090;-1.786;2023-02-02T06:28:53;102029.25;;;19.84;45.68
53262;BME280;39658;51.090;-1.786;2023-02-02T06:31:21;102026.94;;;19.96;45.56
53262;BME280;39658;51.090;-1.786;2023-02-02T06:33:52;102031.72;;;20.09;45.31
53262;BME280;39658;51.090;-1.786;2023-02-02T06:36:20;102024.81;;;20.21;45.22
53262;BME280;39658;51.090;-1.786;2023-02-02T06:38:48;102030.41;;;20.34;44.87
53262;BME280;39658;51.090;-1.786;2023-02-02T06:41:15;102038.56;;;20.49;44.83
53262;BME280;39658;51.090;-1.786;2023-02-02T06:43:42;102039.09;;;20.59;44.74
53262;BME280;39658;51.090;-1.786;2023-02-02T06:46:10;102042.16;;;20.71;44.43
53262;BME280;39658;51.090;-1.786;2023-02-02T06:48:37;102041.50;;;20.83;44.30
53262;BME280;39658;51.090;-1.786;2023-02-02T06:51:04;102033.72;;;20.95;44.19
53262;BME280;39658;51.090;-1.786;2023-02-02T06:53:31;102033.03;;;21.08;43.88
53262;BME280;39658;51.090;-1.786;2023-02-02T06:56:00;102041.69;;;21.18;43.71
53262;BME280;39658;51.090;-1.786;2023-02-02T06:58:28;102044.13;;;21.27;43.95
53262;BME280;39658;51.090;-1.786;2023-02-02T07:01:00;102054.44;;;21.39;43.39
53262;BME280;39658;51.090;-1.786;2023-02-02T07:03:30;102067.66;;;21.48;43.40
53262;BME280;39658;51.090;-1.786;2023-02-02T07:05:57;102065.44;;;21.58;43.14
53262;BME280;39658;51.090;-1.786;2023-02-02T07:08:24;102065.34;;;21.67;43.06
53262;BME280;39658;51.090;-1.786;2023-02-02T07:10:51;102069.59;;;21.76;42.84
53262;BME280;39658;51.090;-1.786;2023-02-02T07:13:18;102069.03;;;21.87;43.05
53262;BME280;39658;51.090;-1.786;2023-02-02T07:15:45;102073.47;;;21.95;42.92
53262;BME280;39658;51.090;-1.786;2023-02-02T07:18:13;102067.25;;;22.01;42.66
53262;BME280;39658;51.090;-1.786;2023-02-02T07:20:41;102070.91;;;22.08;42.62
53262;BME280;39658;51.090;-1.786;2023-02-02T07:23:08;102064.50;;;22.15;42.61
53262;BME280;39658;51.090;-1.786;2023-02-02T07:25:34;102070.81;;;22.23;42.50
53262;BME280;39658;51.090;-1.786;2023-02-02T07:28:01;102072.72;;;22.29;42.35
53262;BME280;39658;51.090;-1.786;2023-02-02T07:30:28;102069.22;;;22.35;42.10
53262;BME280;39658;51.090;-1.786;2023-02-02T07:32:55;102068.22;;;22.42;41.99
53262;BME280;39658;51.090;-1.786;2023-02-02T07:35:22;102073.69;;;22.49;41.97
53262;BME280;39658;51.090;-1.786;2023-02-02T07:37:54;102069.34;;;22.55;42.13
53262;BME280;39658;51.090;-1.786;2023-02-02T07:40:21;102067.28;;;22.63;41.75
53262;BME280;39658;51.090;-1.786;2023-02-02T07:42:48;102080.47;;;22.73;41.64
53262;BME280;39658;51.090;-1.786;2023-02-02T07:45:15;102082.66;;;22.84;42.43
53262;BME280;39658;51.090;-1.786;2023-02-02T07:47:42;102076.44;;;22.97;42.05
53262;BME280;39658;51.090;-1.786;2023-02-02T07:50:09;102082.72;;;23.04;42.15
53262;BME280;39658;51.090;-1.786;2023-02-02T07:52:36;102085.69;;;23.09;42.10
53262;BME280;39658;51.090;-1.786;2023-02-02T07:55:06;102093.19;;;23.13;41.99
53262;BME280;39658;51.090;-1.786;2023-02-02T07:57:33;102083.41;;;23.19;41.93
53262;BME280;39658;51.090;-1.786;2023-02-02T07:59:59;102081.97;;;23.23;41.73
53262;BME280;39658;51.090;-1.786;2023-02-02T08:02:26;102070.28;;;23.29;41.65
53262;BME280;39658;51.090;-1.786;2023-02-02T08:04:53;102077.19;;;23.32;41.69
53262;BME280;39658;51.090;-1.786;2023-02-02T08:07:20;102073.84;;;23.36;41.67
53262;BME280;39658;51.090;-1.786;2023-02-02T08:09:49;102077.19;;;23.38;41.39
53262;BME280;39658;51.090;-1.786;2023-02-02T08:12:17;102073.44;;;23.39;41.61
53262;BME280;39658;51.090;-1.786;2023-02-02T08:14:45;102081.78;;;23.38;41.35
53262;BME280;39658;51.090;-1.786;2023-02-02T08:17:12;102079.28;;;23.36;41.42
53262;BME280;39658;51.090;-1.786;2023-02-02T08:19:39;102078.44;;;23.36;41.68
53262;BME280;39658;51.090;-1.786;2023-02-02T08:22:06;102094.75;;;23.36;41.59
53262;BME280;39658;51.090;-1.786;2023-02-02T08:24:33;102089.09;;;23.37;41.55
53262;BME280;39658;51.090;-1.786;2023-02-02T08:27:05;102094.13;;;23.40;41.60
53262;BME280;39658;51.090;-1.786;2023-02-02T08:29:34;102092.25;;;23.41;41.55
53262;BME280;39658;51.090;-1.786;2023-02-02T08:32:01;102102.06;;;23.42;41.62
53262;BME280;39658;51.090;-1.786;2023-02-02T08:34:28;102104.56;;;23.43;41.44
53262;BME280;39658;51.090;-1.786;2023-02-02T08:36:55;102096.63;;;23.42;41.54
53262;BME280;39658;51.090;-1.786;2023-02-02T08:39:22;102092.25;;;23.41;41.56
53262;BME280;39658;51.090;-1.786;2023-02-02T08:41:49;102091.63;;;23.39;41.66
53262;BME280;39658;51.090;-1.786;2023-02-02T08:44:16;102083.88;;;23.36;41.65
53262;BME280;39658;51.090;-1.786;2023-02-02T08:46:44;102090.78;;;23.32;41.71
53262;BME280;39658;51.090;-1.786;2023-02-02T08:49:11;102089.50;;;23.28;41.92
53262;BME280;39658;51.090;-1.786;2023-02-02T08:51:38;102094.50;;;23.24;41.84
53262;BME280;39658;51.090;-1.786;2023-02-02T08:54:06;102095.94;;;23.20;41.88
53262;BME280;39658;51.090;-1.786;2023-02-02T08:56:32;102109.09;;;23.17;42.12
53262;BME280;39658;51.090;-1.786;2023-02-02T08:58:59;102107.81;;;23.12;42.16
53262;BME280;39658;51.090;-1.786;2023-02-02T09:01:30;102108.44;;;23.08;41.94
53262;BME280;39658;51.090;-1.786;2023-02-02T09:04:01;102107.19;;;23.04;41.98
53262;BME280;39658;51.090;-1.786;2023-02-02T09:06:31;102116.97;;;22.98;42.39
53262;BME280;39658;51.090;-1.786;2023-02-02T09:08:58;102109.63;;;22.92;42.26
53262;BME280;39658;51.090;-1.786;2023-02-02T09:11:25;102111.28;;;22.87;42.62
53262;BME280;39658;51.090;-1.786;2023-02-02T09:13:54;102115.63;;;22.81;42.48
53262;BME280;39658;51.090;-1.786;2023-02-02T09:16:22;102114.53;;;22.75;42.53
53262;BME280;39658;51.090;-1.786;2023-02-02T09:18:49;102108.03;;;22.70;42.68
53262;BME280;39658;51.090;-1.786;2023-02-02T09:21:18;102111.34;;;22.65;42.88
53262;BME280;39658;51.090;-1.786;2023-02-02T09:23:47;102129.91;;;22.62;42.92
53262;BME280;39658;51.090;-1.786;2023-02-02T09:26:15;102123.19;;;22.58;42.92
53262;BME280;39658;51.090;-1.786;2023-02-02T09:28:44;102132.97;;;22.52;42.90
53262;BME280;39658;51.090;-1.786;2023-02-02T09:31:11;102139.00;;;22.47;43.09
53262;BME280;39658;51.090;-1.786;2023-02-02T09:33:39;102138.56;;;22.44;43.08
53262;BME280;39658;51.090;-1.786;2023-02-02T09:36:09;102135.78;;;22.37;43.25
53262;BME280;39658;51.090;-1.786;2023-02-02T09:38:38;102139.28;;;22.31;43.28
53262;BME280;39658;51.090;-1.786;2023-02-02T09:41:38;102148.22;;;22.25;43.34
53262;BME280;39658;51.090;-1.786;2023-02-02T09:44:17;102158.81;;;22.20;43.45
53262;BME280;39658;51.090;-1.786;2023-02-02T09:46:55;102152.31;;;22.14;43.54
53262;BME280;39658;51.090;-1.786;2023-02-02T09:49:27;102152.06;;;22.09;43.75
53262;BME280;39658;51.090;-1.786;2023-02-02T09:52:00;102145.53;;;22.04;43.72
53262;BME280;39658;51.090;-1.786;2023-02-02T09:54:34;102152.34;;;22.00;43.73
53262;BME280;39658;51.090;-1.786;2023-02-02T09:57:07;102146.84;;;21.93;43.76
53262;BME280;39658;51.090;-1.786;2023-02-02T09:59:39;102157.25;;;21.89;44.01
53262;BME280;39658;51.090;-1.786;2023-02-02T10:02:14;102154.28;;;21.84;44.05
53262;BME280;39658;51.090;-1.786;2023-02-02T10:04:44;102157.38;;;21.81;44.03
53262;BME280;39658;51.090;-1.786;2023-02-02T10:07:18;102157.13;;;21.76;44.27
53262;BME280;39658;51.090;-1.786;2023-02-02T10:09:51;102163.97;;;21.72;44.28
53262;BME280;39658;51.090;-1.786;2023-02-02T10:12:30;102153.72;;;21.68;44.26
53262;BME280;39658;51.090;-1.786;2023-02-02T10:15:02;102157.84;;;21.64;44.41
53262;BME280;39658;51.090;-1.786;2023-02-02T10:17:40;102167.34;;;21.59;44.57
53262;BME280;39658;51.090;-1.786;2023-02-02T10:20:18;102165.03;;;21.56;44.50
53262;BME280;39658;51.090;-1.786;2023-02-02T10:22:49;102163.75;;;21.52;44.60
53262;BME280;39658;51.090;-1.786;2023-02-02T10:25:21;102161.41;;;21.49;44.48
53262;BME280;39658;51.090;-1.786;2023-02-02T10:27:55;102159.94;;;21.47;44.71
53262;BME280;39658;51.090;-1.786;2023-02-02T10:30:36;102159.47;;;21.43;44.88
53262;BME280;39658;51.090;-1.786;2023-02-02T10:33:14;102162.56;;;21.40;44.84
53262;BME280;39658;51.090;-1.786;2023-02-02T10:35:50;102172.75;;;21.38;44.83
53262;BME280;39658;51.090;-1.786;2023-02-02T10:38:23;102177.72;;;21.35;44.79
53262;BME280;39658;51.090;-1.786;2023-02-02T10:41:00;102180.81;;;21.32;44.98
53262;BME280;39658;51.090;-1.786;2023-02-02T10:43:55;102182.03;;;21.29;45.07
53262;BME280;39658;51.090;-1.786;2023-02-02T10:46:30;102174.09;;;21.27;44.97
53262;BME280;39658;51.090;-1.786;2023-02-02T10:49:11;102177.19;;;21.24;45.14
53262;BME280;39658;51.090;-1.786;2023-02-02T10:51:40;102174.66;;;21.23;45.37
53262;BME280;39658;51.090;-1.786;2023-02-02T10:54:24;102169.56;;;21.20;45.22
53262;BME280;39658;51.090;-1.786;2023-02-02T10:56:56;102176.19;;;21.17;45.12
53262;BME280;39658;51.090;-1.786;2023-02-02T10:59:30;102182.81;;;21.15;45.35
53262;BME280;39658;51.090;-1.786;2023-02-02T11:01:57;102185.06;;;21.11;45.38
53262;BME280;39658;51.090;-1.786;2023-02-02T11:04:24;102182.56;;;21.10;45.26
53262;BME280;39658;51.090;-1.786;2023-02-02T11:07:09;102180.22;;;21.07;45.36
53262;BME280;39658;51.090;-1.786;2023-02-02T11:09:40;102182.47;;;21.03;45.24
53262;BME280;39658;51.090;-1.786;2023-02-02T11:12:15;102179.13;;;21.01;45.49
53262;BME280;39658;51.090;-1.786;2023-02-02T11:14:46;102166.81;;;20.99;45.52
53262;BME280;39658;51.090;-1.786;2023-02-02T11:17:19;102164.28;;;20.97;45.50
53262;BME280;39658;51.090;-1.786;2023-02-02T11:19:47;102161.94;;;20.94;45.50
53262;BME280;39658;51.090;-1.786;2023-02-02T11:22:28;102156.72;;;20.92;45.62
53262;BME280;39658;51.090;-1.786;2023-02-02T11:24:59;102148.81;;;20.91;45.57
53262;BME280;39658;51.090;-1.786;2023-02-02T11:27:31;102153.56;;;20.89;45.56
53262;BME280;39658;51.090;-1.786;2023-02-02T11:30:11;102152.06;;;20.86;45.65
53262;BME280;39658;51.090;-1.786;2023-02-02T11:32:44;102153.28;;;20.84;45.76
53262;BME280;39658;51.090;-1.786;2023-02-02T11:35:21;102152.63;;;20.82;45.71
53262;BME280;39658;51.090;-1.786;2023-02-02T11:37:57;102153.81;;;20.79;45.59
53262;BME280;39658;51.090;-1.786;2023-02-02T11:40:31;102155.03;;;20.77;45.77
53262;BME280;39658;51.090;-1.786;2023-02-02T11:43:03;102147.09;;;20.75;45.76
53262;BME280;39658;51.090;-1.786;2023-02-02T11:45:34;102155.59;;;20.72;45.78
53262;BME280;39658;51.090;-1.786;2023-02-02T11:48:06;102152.25;;;20.70;45.71
53262;BME280;39658;51.090;-1.786;2023-02-02T11:50:37;102146.19;;;20.68;45.89
53262;BME280;39658;51.090;-1.786;2023-02-02T11:53:04;102146.38;;;20.67;45.91
53262;BME280;39658;51.090;-1.786;2023-02-02T11:55:31;102139.47;;;20.64;45.93
53262;BME280;39658;51.090;-1.786;2023-02-02T11:58:19;102141.53;;;20.62;45.91
53262;BME280;39658;51.090;-1.786;2023-02-02T12:00:51;102135.44;;;20.60;46.12
53262;BME280;39658;51.090;-1.786;2023-02-02T12:03:25;102135.44;;;20.60;45.96
53262;BME280;39658;51.090;-1.786;2023-02-02T12:05:52;102132.09;;;20.58;46.05
53262;BME280;39658;51.090;-1.786;2023-02-02T12:08:19;102128.75;;;20.56;46.07
53262;BME280;39658;51.090;-1.786;2023-02-02T12:10:55;102125.38;;;20.54;46.00
53262;BME280;39658;51.090;-1.786;2023-02-02T12:13:39;102129.13;;;20.53;46.29
53262;BME280;39658;51.090;-1.786;2023-02-02T12:16:18;102132.00;;;20.51;46.02
53262;BME280;39658;51.090;-1.786;2023-02-02T12:18:58;102120.72;;;20.48;46.20
53262;BME280;39658;51.090;-1.786;2023-02-02T12:21:34;102120.72;;;20.48;46.11
53262;BME280;39658;51.090;-1.786;2023-02-02T12:24:21;102115.50;;;20.46;46.19
53262;BME280;39658;51.090;-1.786;2023-02-02T12:26:56;102117.56;;;20.44;46.29
53262;BME280;39658;51.090;-1.786;2023-02-02T12:32:51;102123.97;;;20.43;46.19
53262;BME280;39658;51.090;-1.786;2023-02-02T12:35:47;102107.94;;;20.42;46.30
53262;BME280;39658;51.090;-1.786;2023-02-02T12:38:15;102114.50;;;20.39;46.29
53262;BME280;39658;51.090;-1.786;2023-02-02T12:40:59;102114.69;;;20.38;46.18
53262;BME280;39658;51.090;-1.786;2023-02-02T12:43:38;102106.75;;;20.36;46.35
53262;BME280;39658;51.090;-1.786;2023-02-02T12:46:22;102105.94;;;20.35;46.37
53262;BME280;39658;51.090;-1.786;2023-02-02T12:49:11;102097.16;;;20.33;46.24
53262;BME280;39658;51.090;-1.786;2023-02-02T12:51:55;102096.31;;;20.33;46.47
53262;BME280;39658;51.090;-1.786;2023-02-02T12:54:47;102091.09;;;20.31;46.33
53262;BME280;39658;51.090;-1.786;2023-02-02T12:57:25;102083.00;;;20.31;46.29
53262;BME280;39658;51.090;-1.786;2023-02-02T13:00:15;102081.31;;;20.30;46.35
53262;BME280;39658;51.090;-1.786;2023-02-02T13:02:58;102075.06;;;20.30;46.31
53262;BME280;39658;51.090;-1.786;2023-02-02T13:05:38;102076.09;;;20.29;46.26